Time;durP1;ratioP1;P1;durP2;ratioP2;P2;SDS_P1;SDS_P2;PMS_P1;PMS_P2;Temp;Humidity;BMP_temperature;BMP_pressure;BME280_temperature;BME280_humidity;BME280_pressure;Samples;Min_cycle;Max_cycle;Signal;HPM_P1;HPM_P2
2022/04/20 00:00:14;;;;;;;0.67;0.60;;;16.90;60.10;;;;;;5205174;28;20328;-65
2022/04/20 00:03:08;;;;;;;0.73;0.50;;;16.90;60.10;;;;;;5192581;28;20593;-65
2022/04/20 00:06:00;;;;;;;0.40;0.40;;;16.90;60.10;;;;;;5183598;28;20205;-65
2022/04/20 00:08:53;;;;;;;0.60;0.50;;;16.90;60.10;;;;;;5185348;28;20214;-65
2022/04/20 00:11:46;;;;;;;0.70;0.50;;;16.90;60.10;;;;;;5190105;28;20197;-65
2022/04/20 00:14:38;;;;;;;0.60;0.60;;;16.90;60.10;;;;;;5204438;28;20198;-66
2022/04/20 00:17:30;;;;;;;0.70;0.50;;;16.90;60.10;;;;;;5196942;28;20218;-65
2022/04/20 00:20:23;;;;;;;1.33;0.77;;;16.90;60.10;;;;;;5185458;28;20197;-66
2022/04/20 00:23:15;;;;;;;1.07;0.60;;;16.90;60.10;;;;;;5184979;28;20198;-65
2022/04/20 00:26:07;;;;;;;0.73;0.60;;;16.90;60.10;;;;;;5198112;28;20204;-65
2022/04/20 00:28:59;;;;;;;0.93;0.73;;;16.90;60.10;;;;;;5204551;28;20216;-65
2022/04/20 00:31:51;;;;;;;0.77;0.60;;;16.90;60.10;;;;;;5204561;28;20201;-66
2022/04/20 00:34:44;;;;;;;0.90;0.70;;;16.90;60.10;;;;;;5203481;28;20194;-65
2022/04/20 00:37:37;;;;;;;0.40;0.40;;;16.90;60.10;;;;;;5204057;28;20218;-65
2022/04/20 00:40:29;;;;;;;0.60;0.60;;;16.90;60.10;;;;;;5204440;28;20229;-65
2022/04/20 00:43:22;;;;;;;0.67;0.67;;;16.90;60.10;;;;;;5203356;28;20580;-65
2022/04/20 00:46:15;;;;;;;0.50;0.50;;;16.90;60.10;;;;;;5203864;28;20194;-67
2022/04/20 00:49:08;;;;;;;0.70;0.60;;;16.90;60.10;;;;;;5204072;28;20696;-65
2022/04/20 00:52:03;;;;;;;0.90;0.60;;;16.90;60.10;;;;;;5202914;28;20194;-65
2022/04/20 00:54:56;;;;;;;0.87;0.53;;;16.90;60.10;;;;;;5204480;28;20281;-65
2022/04/20 00:57:48;;;;;;;2.57;0.63;;;16.90;60.10;;;;;;5203939;28;20285;-65
2022/04/20 01:00:40;;;;;;;0.67;0.67;;;16.90;60.10;;;;;;5203823;28;20193;-65
2022/04/20 01:03:33;;;;;;;0.60;0.60;;;16.90;60.10;;;;;;5202424;28;20206;-65
2022/04/20 01:06:25;;;;;;;0.70;0.60;;;16.90;60.10;;;;;;5192207;28;20336;-66
2022/04/20 01:09:17;;;;;;;0.60;0.60;;;16.90;60.00;;;;;;5184812;28;20214;-65
2022/04/20 01:12:13;;;;;;;0.97;0.73;;;16.90;60.10;;;;;;5192546;28;20458;-65
2022/04/20 01:15:06;;;;;;;1.17;0.70;;;16.90;60.70;;;;;;5203473;28;20564;-65
2022/04/20 01:17:58;;;;;;;0.50;0.50;;;16.90;60.10;;;;;;5219986;28;20217;-66
2022/04/20 01:20:51;;;;;;;0.93;0.60;;;16.90;60.10;;;;;;5224429;28;20680;-65
2022/04/20 01:23:43;;;;;;;0.60;0.60;;;16.90;60.10;;;;;;5224474;28;20203;-64
2022/04/20 01:26:36;;;;;;;0.70;0.63;;;16.90;60.00;;;;;;5223375;28;20216;-65
2022/04/20 01:29:29;;;;;;;0.77;0.60;;;16.90;60.10;;;;;;5224191;28;20220;-65
2022/04/20 01:32:21;;;;;;;0.70;0.60;;;16.90;60.10;;;;;;5227486;28;20204;-65
2022/04/20 01:35:13;;;;;;;1.00;0.80;;;16.90;60.10;;;;;;5227934;28;20223;-65
2022/04/20 01:38:07;;;;;;;1.30;0.80;;;16.90;60.10;;;;;;5215295;28;20697;-65
2022/04/20 01:40:59;;;;;;;0.70;0.70;;;16.90;60.00;;;;;;5207846;28;20194;-65
2022/04/20 01:43:51;;;;;;;0.57;0.53;;;16.90;60.10;;;;;;5210704;28;20675;-66
2022/04/20 01:46:43;;;;;;;0.93;0.70;;;16.90;60.10;;;;;;5206591;28;20214;-64
2022/04/20 01:49:35;;;;;;;1.33;0.63;;;16.90;60.00;;;;;;5207839;28;20200;-65
2022/04/20 01:52:27;;;;;;;0.70;0.60;;;16.90;60.10;;;;;;5205618;28;20202;-65
2022/04/20 01:55:21;;;;;;;0.73;0.70;;;16.90;60.10;;;;;;5205800;28;20202;-65
2022/04/20 01:58:13;;;;;;;1.13;0.70;;;16.90;60.00;;;;;;5206991;28;20689;-65
2022/04/20 02:02:34;;;;;;;1.60;0.40;;;16.90;60.10;;;;;;5207537;28;20225;-64
2022/04/20 02:04:16;;;;;;;0.60;0.60;;;16.90;60.10;;;;;;5187206;28;20198;-66
2022/04/20 02:07:08;;;;;;;0.70;0.70;;;16.90;60.10;;;;;;5199606;28;20218;-65
2022/04/20 02:10:01;;;;;;;0.70;0.60;;;16.90;60.10;;;;;;5207162;28;20204;-65
2022/04/20 02:12:55;;;;;;;0.70;0.70;;;16.90;60.00;;;;;;5205375;28;20194;-66
2022/04/20 02:15:47;;;;;;;0.80;0.70;;;16.90;60.10;;;;;;5204028;28;20200;-65
2022/04/20 02:18:39;;;;;;;1.07;0.70;;;16.90;60.10;;;;;;5206266;28;20198;-66
2022/04/20 02:21:31;;;;;;;0.40;0.40;;;16.90;60.10;;;;;;5204904;28;20193;-65
2022/04/20 02:24:23;;;;;;;0.57;0.50;;;16.90;60.10;;;;;;5191152;28;20198;-65
2022/04/20 02:27:15;;;;;;;1.43;0.70;;;16.90;60.10;;;;;;5187038;28;20223;-65
2022/04/20 02:30:10;;;;;;;0.90;0.57;;;16.90;60.10;;;;;;5187308;28;20205;-65
2022/04/20 02:33:02;;;;;;;1.23;0.77;;;16.90;60.10;;;;;;5203570;28;20662;-65
2022/04/20 02:35:54;;;;;;;1.10;0.67;;;16.90;60.10;;;;;;5206963;28;20601;-65
2022/04/20 02:38:46;;;;;;;0.50;0.50;;;16.90;60.20;;;;;;5206641;28;20247;-63
2022/04/20 02:41:41;;;;;;;0.63;0.57;;;16.90;60.10;;;;;;5205689;28;20198;-65
2022/04/20 02:44:33;;;;;;;0.50;0.50;;;16.90;60.00;;;;;;5186495;28;20194;-65
2022/04/20 02:47:26;;;;;;;0.60;0.60;;;16.90;60.10;;;;;;5195839;28;20271;-65
2022/04/20 02:50:19;;;;;;;1.20;0.50;;;16.90;60.10;;;;;;5206573;28;20201;-65
2022/04/20 02:53:13;;;;;;;0.80;0.80;;;16.90;60.00;;;;;;5205575;28;20190;-65
2022/04/20 02:56:05;;;;;;;0.70;0.57;;;16.90;60.00;;;;;;5205336;28;20201;-65
2022/04/20 02:58:57;;;;;;;1.03;0.80;;;16.90;60.00;;;;;;5206178;28;20198;-65
2022/04/20 03:01:49;;;;;;;0.53;0.50;;;16.90;60.00;;;;;;5205564;28;20202;-66
2022/04/20 03:04:43;;;;;;;0.67;0.60;;;16.90;60.00;;;;;;5205674;28;20665;-65
2022/04/20 03:07:35;;;;;;;1.13;0.90;;;16.90;60.10;;;;;;5204961;28;20221;-65
2022/04/20 03:10:27;;;;;;;0.93;0.60;;;16.90;60.00;;;;;;5223913;28;20204;-65
2022/04/20 03:13:19;;;;;;;0.67;0.67;;;16.90;60.10;;;;;;5201510;28;20677;-65
2022/04/20 03:16:11;;;;;;;0.70;0.70;;;16.90;60.00;;;;;;5185666;28;20370;-66
2022/04/20 03:19:04;;;;;;;0.80;0.50;;;16.90;60.00;;;;;;5186263;28;20191;-66
2022/04/20 03:21:57;;;;;;;1.83;0.90;;;16.90;60.10;;;;;;5185040;28;20203;-65
2022/04/20 03:24:49;;;;;;;0.60;0.60;;;16.90;60.00;;;;;;5185871;28;20206;-66
2022/04/20 03:27:41;;;;;;;0.70;0.63;;;16.90;60.00;;;;;;5185499;28;20225;-65
2022/04/20 03:30:33;;;;;;;0.67;0.67;;;16.90;60.00;;;;;;5192420;28;20197;-65
2022/04/20 03:33:26;;;;;;;0.60;0.60;;;16.80;59.90;;;;;;5205658;28;20190;-65
2022/04/20 03:36:18;;;;;;;1.30;1.00;;;16.80;59.80;;;;;;5206255;28;20194;-65
2022/04/20 03:39:11;;;;;;;4.03;0.80;;;16.90;59.90;;;;;;5205696;28;20194;-66
2022/04/20 03:42:04;;;;;;;1.90;0.73;;;16.90;59.90;;;;;;5205449;28;20204;-65
2022/04/20 03:44:56;;;;;;;0.80;0.70;;;16.90;59.80;;;;;;5214848;28;20677;-65
2022/04/20 03:47:48;;;;;;;0.80;0.60;;;16.90;59.80;;;;;;5202176;28;20213;-65
2022/04/20 03:50:40;;;;;;;0.60;0.60;;;16.90;59.80;;;;;;5198604;28;20194;-66
2022/04/20 03:53:32;;;;;;;0.73;0.70;;;16.90;59.70;;;;;;5203784;28;20197;-65
2022/04/20 03:56:26;;;;;;;0.60;0.60;;;16.90;59.70;;;;;;5210795;28;20231;-66
2022/04/20 03:59:18;;;;;;;0.93;0.73;;;16.90;59.70;;;;;;5204706;28;20543;-66
2022/04/20 04:02:10;;;;;;;0.70;0.60;;;16.90;59.60;;;;;;5200434;28;20224;-66
2022/04/20 04:05:03;;;;;;;1.23;0.70;;;16.90;59.60;;;;;;5202312;28;20273;-65
2022/04/20 04:07:55;;;;;;;1.03;0.70;;;16.90;59.60;;;;;;5201331;28;20221;-66
2022/04/20 04:10:47;;;;;;;0.80;0.80;;;16.90;59.60;;;;;;5201640;28;20205;-63
2022/04/20 04:13:40;;;;;;;0.80;0.70;;;16.90;59.60;;;;;;5183125;28;20582;-66
2022/04/20 04:16:36;;;;;;;0.83;0.67;;;16.90;59.60;;;;;;5182514;28;20218;-66
2022/04/20 04:19:28;;;;;;;0.80;0.80;;;16.90;59.60;;;;;;5182221;28;20198;-66
2022/04/20 04:22:21;;;;;;;1.07;0.73;;;16.90;59.60;;;;;;5182061;28;20202;-65
2022/04/20 04:25:13;;;;;;;1.43;0.80;;;16.90;59.60;;;;;;5182134;28;20195;-65
2022/04/20 04:28:05;;;;;;;0.90;0.60;;;16.90;59.60;;;;;;5182017;28;20228;-65
2022/04/20 04:30:59;;;;;;;0.70;0.70;;;16.90;59.60;;;;;;5182480;28;20712;-65
2022/04/20 04:33:51;;;;;;;1.40;0.80;;;16.90;59.60;;;;;;5182075;28;20282;-65
2022/04/20 04:36:43;;;;;;;0.90;0.70;;;16.90;59.60;;;;;;5198295;28;20301;-65
2022/04/20 04:39:35;;;;;;;0.60;0.60;;;17.00;59.60;;;;;;5203712;28;20197;-66
2022/04/20 04:42:27;;;;;;;0.97;0.70;;;16.90;59.50;;;;;;5185865;28;20198;-65
2022/04/20 04:48:37;;;;;;;1.37;0.80;;;17.00;60.20;;;;;;5203450;28;20727;-65
2022/04/20 04:51:29;;;;;;;0.80;0.70;;;17.00;59.60;;;;;;5203206;28;20655;-65
2022/04/20 04:54:21;;;;;;;1.47;1.10;;;16.90;59.50;;;;;;5204529;28;20201;-65
2022/04/20 04:57:14;;;;;;;2.97;0.90;;;16.90;59.60;;;;;;5204054;28;20218;-63
2022/04/20 05:00:08;;;;;;;2.10;1.03;;;16.90;59.50;;;;;;5204462;28;20186;-65
2022/04/20 05:03:00;;;;;;;4.23;0.93;;;16.90;59.60;;;;;;5202521;28;20327;-65
2022/04/20 05:05:53;;;;;;;1.03;0.67;;;16.90;59.60;;;;;;5209535;28;20193;-65
2022/04/20 05:08:45;;;;;;;3.50;1.13;;;16.90;59.70;;;;;;5203843;28;20221;-64
2022/04/20 05:11:38;;;;;;;1.07;0.90;;;16.90;59.70;;;;;;5192607;28;20198;-65
2022/04/20 05:14:30;;;;;;;0.77;0.77;;;16.90;60.30;;;;;;5210978;28;20197;-65
2022/04/20 05:17:22;;;;;;;4.43;1.10;;;17.00;59.70;;;;;;5209328;28;20208;-65
2022/04/20 05:20:14;;;;;;;2.63;1.03;;;17.00;59.60;;;;;;5210723;28;20192;-66
2022/04/20 05:23:09;;;;;;;4.27;1.20;;;17.00;59.50;;;;;;5210774;28;20601;-65
2022/04/20 05:26:01;;;;;;;1.20;0.93;;;17.00;59.40;;;;;;5210381;28;20542;-65
2022/04/20 05:28:53;;;;;;;1.67;1.10;;;17.00;59.40;;;;;;5210701;28;20215;-65
2022/04/20 05:31:45;;;;;;;1.93;1.10;;;17.00;59.40;;;;;;5192034;28;20198;-63
2022/04/20 05:34:37;;;;;;;2.20;1.00;;;17.00;59.40;;;;;;5191153;28;20285;-65
2022/04/20 05:43:50;;;;;;;1.53;1.00;;;17.00;59.40;;;;;;5202388;28;20231;-64
2022/04/20 05:46:42;;;;;;;1.27;0.93;;;16.90;59.40;;;;;;5196420;28;20225;-65
2022/04/20 05:49:34;;;;;;;1.10;1.00;;;16.90;59.40;;;;;;5211439;28;20235;-65
2022/04/20 05:52:26;;;;;;;2.20;1.20;;;17.00;59.40;;;;;;5200909;28;20206;-62
2022/04/20 05:55:20;;;;;;;1.40;0.80;;;17.00;59.60;;;;;;5202962;28;20200;-63
2022/04/20 05:58:13;;;;;;;1.10;0.80;;;17.00;59.50;;;;;;5209583;28;20305;-62
2022/04/20 06:01:05;;;;;;;1.43;1.07;;;17.00;59.50;;;;;;5209381;28;20204;-62
2022/04/20 06:03:58;;;;;;;2.23;1.10;;;17.00;59.60;;;;;;5209417;28;20208;-63
2022/04/20 06:06:50;;;;;;;1.87;1.13;;;17.00;59.70;;;;;;5208751;28;20225;-62
2022/04/20 06:09:42;;;;;;;0.90;0.80;;;17.00;59.70;;;;;;5208809;28;20222;-62
2022/04/20 06:12:35;;;;;;;3.37;1.17;;;17.00;59.70;;;;;;5198099;28;20551;-63
2022/04/20 06:15:28;;;;;;;1.43;0.83;;;17.00;59.70;;;;;;5189241;28;20642;-63
2022/04/20 06:18:20;;;;;;;2.73;0.73;;;17.00;59.80;;;;;;5186245;28;20226;-63
2022/04/20 06:21:12;;;;;;;1.00;0.90;;;17.00;59.80;;;;;;5185831;28;20195;-63
2022/04/20 06:24:05;;;;;;;1.20;0.70;;;17.00;59.80;;;;;;5186758;28;20194;-68
2022/04/20 06:26:57;;;;;;;2.03;1.03;;;17.00;59.80;;;;;;5186069;28;20222;-62
2022/04/20 06:29:49;;;;;;;1.73;1.00;;;17.00;59.80;;;;;;5186662;28;20219;-62
2022/04/20 06:32:43;;;;;;;1.20;0.80;;;17.00;59.80;;;;;;5207979;28;20196;-62
2022/04/20 06:35:35;;;;;;;1.03;0.77;;;17.00;59.80;;;;;;5206292;28;20198;-62
2022/04/20 06:38:27;;;;;;;1.20;0.87;;;16.90;60.00;;;;;;5207550;28;20225;-63
2022/04/20 06:41:19;;;;;;;2.23;1.10;;;17.00;59.90;;;;;;5205944;28;20202;-61
2022/04/20 06:44:12;;;;;;;1.40;0.90;;;17.00;59.90;;;;;;5206991;28;20576;-61
2022/04/20 06:47:04;;;;;;;2.23;0.90;;;17.00;59.90;;;;;;5204879;28;20214;-63
2022/04/20 06:49:57;;;;;;;1.30;0.90;;;17.00;59.90;;;;;;5205267;28;20210;-62
2022/04/20 06:59:34;;;;;;;1.87;0.67;;;17.00;60.00;;;;;;5186909;28;20197;-62
2022/04/20 07:02:27;;;;;;;2.47;0.70;;;17.00;60.00;;;;;;5185065;28;20199;-63
2022/04/20 07:05:20;;;;;;;1.73;0.90;;;16.90;60.00;;;;;;5185303;28;20206;-62
2022/04/20 07:08:12;;;;;;;1.03;0.60;;;17.00;60.00;;;;;;5186453;28;20298;-62
2022/04/20 07:11:05;;;;;;;0.80;0.60;;;17.00;59.90;;;;;;5186033;28;20213;-62
2022/04/20 07:13:57;;;;;;;1.10;0.70;;;17.00;60.00;;;;;;5200822;28;20723;-62
2022/04/20 07:16:49;;;;;;;1.10;0.77;;;16.90;59.90;;;;;;5206892;28;20240;-63
2022/04/20 07:19:42;;;;;;;1.23;0.87;;;17.00;60.00;;;;;;5192108;28;20187;-62
2022/04/20 07:22:37;;;;;;;1.30;0.80;;;17.00;60.00;;;;;;5185235;28;20729;-63
2022/04/20 07:25:30;;;;;;;1.23;0.70;;;17.00;60.00;;;;;;5184816;28;20195;-62
2022/04/20 07:28:22;;;;;;;1.03;0.70;;;16.90;59.90;;;;;;5184728;28;20222;-62
2022/04/20 07:31:14;;;;;;;1.50;0.90;;;17.00;60.00;;;;;;5197123;28;20330;-62
2022/04/20 07:34:06;;;;;;;1.10;0.70;;;17.00;60.00;;;;;;5204568;28;20208;-62
2022/04/20 07:36:58;;;;;;;1.40;0.80;;;17.00;60.10;;;;;;5205838;28;20229;-62
2022/04/20 07:39:52;;;;;;;2.37;0.70;;;16.90;60.00;;;;;;5185912;28;20191;-63
2022/04/20 07:42:44;;;;;;;1.53;0.80;;;17.00;60.10;;;;;;5194227;28;20219;-63
2022/04/20 07:45:36;;;;;;;1.07;0.70;;;17.00;60.10;;;;;;5204220;28;20198;-63
2022/04/20 07:48:28;;;;;;;1.27;0.70;;;17.00;60.10;;;;;;5183191;28;20768;-62
2022/04/20 07:51:20;;;;;;;1.33;0.87;;;17.00;60.10;;;;;;5195661;28;20221;-62
2022/04/20 07:54:12;;;;;;;0.80;0.70;;;17.00;60.10;;;;;;5218842;28;20201;-63
2022/04/20 07:57:06;;;;;;;0.93;0.73;;;17.00;60.10;;;;;;5183706;28;20218;-62
2022/04/20 07:59:58;;;;;;;1.53;0.70;;;17.00;60.10;;;;;;5184978;28;20225;-62
2022/04/20 08:02:51;;;;;;;1.40;0.77;;;17.00;60.10;;;;;;5195289;28;20198;-62
2022/04/20 08:05:47;;;;;;;1.23;0.83;;;17.00;60.10;;;;;;5205069;28;20623;-62
2022/04/20 08:08:39;;;;;;;0.77;0.70;;;17.00;60.10;;;;;;5205400;28;20198;-62
2022/04/20 08:11:31;;;;;;;1.57;0.70;;;17.00;60.20;;;;;;5204678;28;20662;-62
2022/04/20 08:14:25;;;;;;;0.90;0.60;;;17.00;60.20;;;;;;5205280;28;20197;-62
2022/04/20 08:17:17;;;;;;;1.20;0.87;;;17.00;60.20;;;;;;5204988;28;20224;-62
2022/04/20 08:20:10;;;;;;;1.30;0.70;;;17.00;60.80;;;;;;5204926;28;20197;-62
2022/04/20 08:23:02;;;;;;;0.63;0.63;;;16.90;60.20;;;;;;5204653;28;20197;-62
2022/04/20 08:25:54;;;;;;;0.80;0.60;;;17.00;60.20;;;;;;5203943;28;20574;-63
2022/04/20 08:28:46;;;;;;;0.80;0.60;;;17.00;60.30;;;;;;5204614;28;20198;-62
2022/04/20 08:31:40;;;;;;;0.70;0.63;;;17.00;60.90;;;;;;5203870;28;20202;-68
2022/04/20 08:34:32;;;;;;;0.50;0.50;;;17.00;60.30;;;;;;5204759;28;20197;-62
2022/04/20 08:37:24;;;;;;;0.97;0.70;;;17.00;60.40;;;;;;5203945;28;20224;-62
2022/04/20 08:40:17;;;;;;;1.90;0.93;;;17.00;60.40;;;;;;5189300;28;20186;-62
2022/04/20 08:43:12;;;;;;;2.37;0.80;;;17.00;60.50;;;;;;5184466;28;20205;-63
2022/04/20 08:46:05;;;;;;;0.60;0.50;;;17.00;60.50;;;;;;5203668;28;20205;-62
2022/04/20 08:48:59;;;;;;;0.80;0.70;;;17.00;60.50;;;;;;5203467;28;20198;-62
2022/04/20 08:55:00;;;;;;;0.50;0.50;;;17.00;60.50;;;;;;5167559;28;20229;-64
2022/04/20 08:57:53;;;;;;;1.10;0.70;;;17.00;60.60;;;;;;5195168;28;20214;-62
2022/04/20 09:00:45;;;;;;;0.90;0.60;;;17.00;60.60;;;;;;5204395;28;20198;-62
2022/04/20 09:03:37;;;;;;;1.00;0.60;;;17.00;60.60;;;;;;5204229;28;20206;-62
2022/04/20 09:06:31;;;;;;;0.83;0.70;;;17.00;60.60;;;;;;5204195;28;20248;-63
2022/04/20 09:09:29;;;;;;;0.83;0.60;;;17.00;60.60;;;;;;5222848;28;20189;-62
2022/04/20 09:12:23;;;;;;;1.47;0.67;;;17.00;60.70;;;;;;5246697;23;20248;-59
2022/04/20 09:15:34;;;;;;;0.80;0.60;;;17.00;60.70;;;;;;5226198;28;20262;-59
2022/04/20 09:18:28;;;;;;;1.37;0.70;;;17.00;60.70;;;;;;5214976;28;20319;-63
2022/04/20 09:21:20;;;;;;;0.83;0.60;;;17.00;60.80;;;;;;5216356;28;20220;-63
2022/04/20 09:24:14;;;;;;;2.17;0.60;;;17.00;60.80;;;;;;5217513;28;20676;-63
2022/04/20 09:27:06;;;;;;;0.57;0.50;;;17.00;60.80;;;;;;5225365;28;20727;-63
2022/04/20 09:29:59;;;;;;;0.70;0.70;;;17.00;60.80;;;;;;5212494;28;20693;-63
2022/04/20 09:32:51;;;;;;;0.87;0.50;;;17.00;60.80;;;;;;5222828;28;20252;-62
2022/04/20 09:35:45;;;;;;;0.80;0.80;;;17.00;60.80;;;;;;5224271;28;20197;-63
2022/04/20 09:38:41;;;;;;;0.80;0.47;;;17.00;60.80;;;;;;5224016;28;20208;-62
2022/04/20 09:41:34;;;;;;;0.93;0.50;;;17.00;60.80;;;;;;5223136;28;20217;-62
2022/04/20 09:44:27;;;;;;;0.87;0.70;;;17.00;60.80;;;;;;5218461;28;20564;-63
2022/04/20 09:50:32;;;;;;;1.63;0.60;;;17.00;60.80;;;;;;5224850;28;20692;-63
2022/04/20 09:53:33;;;;;;;0.93;0.67;;;17.00;60.80;;;;;;5227227;28;20219;-63
2022/04/20 09:56:27;;;;;;;1.20;0.80;;;17.00;60.80;;;;;;5226819;28;20201;-63
2022/04/20 09:59:20;;;;;;;0.67;0.50;;;17.10;60.90;;;;;;5228657;28;20197;-64
2022/04/20 10:02:13;;;;;;;0.60;0.60;;;17.10;60.90;;;;;;5220380;28;20223;-63
2022/04/20 10:05:05;;;;;;;0.90;0.60;;;17.10;61.20;;;;;;5227574;28;20211;-61
2022/04/20 10:07:59;;;;;;;1.17;0.50;;;17.10;60.90;;;;;;5227785;28;20204;-61
2022/04/20 10:10:54;;;;;;;0.50;0.50;;;17.10;60.90;;;;;;5229614;28;20691;-61
2022/04/20 10:16:05;;;;;;;0.90;0.40;;;17.10;60.90;;;;;;5247980;28;20672;-61
2022/04/20 10:17:01;;;;;;;0.60;0.53;;;17.10;60.90;;;;;;5248405;28;20204;-61
2022/04/20 10:19:54;;;;;;;0.73;0.50;;;17.10;60.90;;;;;;5248009;28;20563;-61
2022/04/20 10:22:47;;;;;;;0.60;0.60;;;17.10;60.80;;;;;;5247978;28;20266;-61
2022/04/20 10:25:41;;;;;;;0.67;0.50;;;17.10;60.80;;;;;;5237841;28;20678;-60
2022/04/20 10:28:46;;;;;;;0.50;0.50;;;17.10;60.80;;;;;;5226870;28;20201;-61
2022/04/20 10:31:43;;;;;;;0.60;0.43;;;17.10;60.80;;;;;;5227179;28;20224;-61
2022/04/20 10:34:39;;;;;;;1.87;0.60;;;17.10;60.70;;;;;;5227218;28;20193;-59
2022/04/20 10:37:31;;;;;;;0.70;0.50;;;17.10;60.80;;;;;;5227527;28;20737;-61
2022/04/20 10:40:24;;;;;;;0.57;0.47;;;17.10;60.80;;;;;;5227665;28;20679;-60
2022/04/20 10:43:21;;;;;;;0.90;0.43;;;17.10;60.90;;;;;;5226700;28;20580;-61
2022/04/20 10:46:17;;;;;;;0.40;0.40;;;17.10;60.80;;;;;;5235085;28;20239;-61
2022/04/20 10:49:17;;;;;;;0.53;0.50;;;17.10;60.80;;;;;;5232357;28;20204;-61
2022/04/20 10:52:24;;;;;;;1.03;0.53;;;17.10;60.80;;;;;;5230691;28;20213;-61
2022/04/20 10:55:16;;;;;;;0.80;0.57;;;17.10;60.80;;;;;;5227270;28;20189;-61
2022/04/20 10:58:20;;;;;;;0.40;0.40;;;17.10;60.80;;;;;;5227007;28;20668;-62
2022/04/20 11:01:13;;;;;;;0.30;0.30;;;17.10;60.80;;;;;;5217093;28;20206;-61
2022/04/20 11:04:06;;;;;;;1.10;0.60;;;17.10;60.80;;;;;;5225652;28;20668;-61
2022/04/20 11:07:26;;;;;;;0.47;0.30;;;17.10;60.80;;;;;;5227788;28;20209;-61
2022/04/20 11:10:18;;;;;;;0.70;0.50;;;17.10;60.80;;;;;;5226447;28;20201;-61
2022/04/20 11:19:48;;;;;;;0.50;0.40;;;17.10;60.80;;;;;;5206775;28;20209;-61
2022/04/20 11:22:46;;;;;;;0.40;0.40;;;17.10;60.80;;;;;;5206307;28;20245;-61
2022/04/20 11:25:40;;;;;;;0.80;0.60;;;17.10;60.80;;;;;;5206635;28;20276;-61
2022/04/20 11:28:40;;;;;;;0.37;0.37;;;17.10;60.90;;;;;;5194011;28;20202;-62
2022/04/20 11:31:37;;;;;;;0.70;0.50;;;17.10;60.80;;;;;;5192673;28;20241;-60
2022/04/20 11:34:33;;;;;;;0.75;0.60;;;17.10;60.80;;;;;;5205820;28;20414;-61
2022/04/20 11:37:25;;;;;;;2.20;1.10;;;17.10;60.70;;;;;;5207668;28;20291;-60
2022/04/20 11:40:21;;;;;;;3.13;0.70;;;17.10;60.80;;;;;;5199306;28;20190;-61
2022/04/20 11:43:14;;;;;;;5.77;1.47;;;17.10;60.80;;;;;;5205745;28;20204;-61
2022/04/20 11:46:08;;;;;;;7.93;1.43;;;17.10;60.80;;;;;;5205066;28;20189;-61
2022/04/20 11:49:00;;;;;;;2.70;1.20;;;17.10;60.80;;;;;;5205540;28;20247;-60
2022/04/20 11:51:57;;;;;;;3.17;1.30;;;17.10;60.80;;;;;;5189737;28;20214;-61
2022/04/20 11:54:50;;;;;;;6.20;2.20;;;17.10;60.80;;;;;;5185126;28;20199;-60
2022/04/20 11:57:44;;;;;;;6.10;2.20;;;17.10;60.80;;;;;;5184881;28;20199;-60
2022/04/20 12:00:36;;;;;;;6.63;2.23;;;17.10;60.80;;;;;;5184979;28;20684;-61
2022/04/20 12:03:31;;;;;;;11.40;3.27;;;17.10;60.80;;;;;;5202885;28;20198;-64
2022/04/20 12:06:25;;;;;;;12.20;3.20;;;17.10;60.90;;;;;;5184250;28;20626;-63
2022/04/20 12:09:20;;;;;;;11.67;3.50;;;17.10;60.90;;;;;;5184660;28;20194;-63
2022/04/20 12:12:16;;;;;;;15.37;3.47;;;17.10;60.90;;;;;;5204641;28;20258;-63
2022/04/20 12:15:12;;;;;;;10.80;3.53;;;17.10;60.90;;;;;;5225813;28;20775;-63
2022/04/20 12:18:05;;;;;;;8.77;3.27;;;17.10;61.00;;;;;;5226769;28;20272;-63
2022/04/20 12:20:57;;;;;;;8.97;3.60;;;17.10;61.10;;;;;;5225469;28;20209;-63
2022/04/20 12:23:50;;;;;;;11.27;3.50;;;17.10;61.10;;;;;;5225990;28;20200;-63
2022/04/20 12:26:43;;;;;;;8.17;3.53;;;17.10;61.10;;;;;;5225752;28;20323;-63
2022/04/20 12:29:36;;;;;;;10.27;3.70;;;17.10;61.10;;;;;;5225773;28;20197;-63
2022/04/20 12:32:33;;;;;;;11.60;3.83;;;17.10;61.10;;;;;;5225424;28;20217;-63
2022/04/20 12:35:25;;;;;;;8.63;3.43;;;17.10;61.10;;;;;;5224873;28;20202;-63
2022/04/20 12:38:17;;;;;;;7.93;3.43;;;17.00;61.20;;;;;;5218719;28;20201;-63
2022/04/20 12:41:37;;;;;;;9.23;4.00;;;17.00;61.20;;;;;;5203875;28;20216;-63
2022/04/20 12:44:48;;;;;;;8.90;3.63;;;17.10;61.30;;;;;;5223097;28;20204;-63
2022/04/20 12:47:42;;;;;;;11.47;3.53;;;17.00;61.30;;;;;;5225120;28;20216;-64
2022/04/20 12:50:38;;;;;;;9.93;3.60;;;17.00;61.40;;;;;;5222598;28;20220;-63
2022/04/20 12:53:39;;;;;;;8.77;3.50;;;17.00;61.40;;;;;;5225302;28;20199;-63
2022/04/20 13:02:59;;;;;;;8.57;3.20;;;17.10;61.50;;;;;;5225633;28;20212;-64
2022/04/20 13:05:51;;;;;;;10.03;3.33;;;17.00;61.50;;;;;;5223372;28;20205;-61
2022/04/20 13:08:45;;;;;;;9.33;3.73;;;17.10;61.60;;;;;;5225867;28;20194;-62
2022/04/20 13:11:39;;;;;;;7.47;3.63;;;17.10;61.60;;;;;;5224509;28;20220;-60
2022/04/20 13:14:31;;;;;;;8.40;3.40;;;17.10;61.60;;;;;;5224302;28;20209;-61
2022/04/20 13:17:23;;;;;;;9.27;3.53;;;17.10;61.60;;;;;;5223702;28;20204;-61
2022/04/20 13:20:17;;;;;;;11.33;3.33;;;17.00;61.50;;;;;;5224568;28;20201;-61
2022/04/20 13:23:09;;;;;;;11.97;4.17;;;17.10;61.60;;;;;;5226350;28;20192;-62
2022/04/20 13:29:12;;;;;;;10.17;3.70;;;17.10;61.60;;;;;;5229748;28;20227;-61
2022/04/20 13:32:04;;;;;;;7.60;3.70;;;17.10;61.60;;;;;;5225140;28;20227;-61
2022/04/20 13:34:56;;;;;;;7.53;3.37;;;17.00;61.70;;;;;;5208740;28;20190;-61
2022/04/20 13:37:50;;;;;;;9.97;4.00;;;17.10;61.70;;;;;;5211175;28;20693;-61
2022/04/20 13:40:42;;;;;;;10.13;3.93;;;17.10;61.70;;;;;;5223827;28;20201;-61
2022/04/20 13:43:35;;;;;;;9.03;3.77;;;17.10;61.80;;;;;;5229071;28;20710;-61
2022/04/20 13:46:27;;;;;;;11.57;4.80;;;17.00;61.70;;;;;;5228626;28;20212;-60
2022/04/20 13:49:19;;;;;;;12.00;4.97;;;17.10;61.60;;;;;;5226839;28;20198;-60
2022/04/20 13:52:11;;;;;;;14.07;4.43;;;17.00;61.60;;;;;;5227772;28;20599;-61
2022/04/20 13:55:06;;;;;;;8.07;3.77;;;17.00;61.60;;;;;;5228497;28;20197;-61
2022/04/20 13:57:58;;;;;;;6.70;4.00;;;17.00;61.60;;;;;;5228905;28;20201;-60
2022/04/20 14:00:51;;;;;;;10.40;4.20;;;17.00;61.60;;;;;;5214891;28;20218;-59
2022/04/20 14:03:43;;;;;;;11.73;4.10;;;17.00;61.60;;;;;;5209198;28;20288;-60
2022/04/20 14:06:35;;;;;;;9.10;3.57;;;17.10;61.60;;;;;;5228731;28;20197;-60
2022/04/20 14:09:27;;;;;;;9.47;3.50;;;17.10;61.50;;;;;;5228916;28;20596;-60
2022/04/20 14:12:22;;;;;;;9.35;3.60;;;17.10;61.60;;;;;;5241466;28;20463;-61
2022/04/20 14:15:15;;;;;;;10.73;4.03;;;17.10;61.50;;;;;;5248554;28;20552;-60
2022/04/20 14:18:07;;;;;;;8.57;3.97;;;17.10;61.40;;;;;;5241279;28;20562;-60
2022/04/20 14:21:00;;;;;;;8.67;3.57;;;17.10;61.50;;;;;;5206727;28;20214;-61
2022/04/20 14:23:52;;;;;;;9.90;4.10;;;17.10;61.50;;;;;;5207271;28;20216;-61
2022/04/20 14:33:05;;;;;;;9.53;3.70;;;17.10;61.70;;;;;;5206473;28;20190;-61
2022/04/20 14:35:57;;;;;;;7.43;3.70;;;17.10;61.60;;;;;;5225474;28;20208;-61
2022/04/20 14:38:49;;;;;;;7.93;3.47;;;17.10;61.70;;;;;;5226557;28;20198;-60
2022/04/20 14:41:41;;;;;;;9.97;3.80;;;17.10;61.70;;;;;;5227553;28;20213;-61
2022/04/20 14:44:35;;;;;;;8.10;4.23;;;17.10;61.70;;;;;;5228165;28;20208;-60
2022/04/20 14:47:29;;;;;;;7.97;3.90;;;17.10;61.80;;;;;;5227310;28;20205;-60
2022/04/20 14:50:21;;;;;;;7.63;3.33;;;17.10;61.80;;;;;;5230302;28;20199;-61
2022/04/20 14:53:13;;;;;;;7.07;3.33;;;17.10;61.80;;;;;;5247125;28;20571;-64
2022/04/20 14:56:06;;;;;;;7.07;3.47;;;17.10;61.80;;;;;;5247638;28;20756;-64
2022/04/20 14:58:59;;;;;;;8.90;3.60;;;17.10;61.80;;;;;;5247392;28;20335;-64
2022/04/20 15:01:51;;;;;;;7.80;3.47;;;17.10;61.90;;;;;;5247003;28;20695;-62
2022/04/20 15:04:44;;;;;;;10.30;3.70;;;17.10;61.90;;;;;;5230084;28;20412;-60
2022/04/20 15:07:36;;;;;;;9.47;4.20;;;17.10;62.00;;;;;;5238752;28;20254;-63
2022/04/20 15:10:29;;;;;;;7.53;3.57;;;17.10;61.80;;;;;;5246991;28;20285;-60
2022/04/20 15:13:22;;;;;;;6.33;3.03;;;17.10;61.80;;;;;;5245245;22;20420;-62
2022/04/20 15:16:15;;;;;;;8.37;3.57;;;17.10;62.00;;;;;;5204701;28;20190;-62
2022/04/20 15:19:07;;;;;;;7.70;3.73;;;17.10;62.00;;;;;;5186437;28;20203;-62
2022/04/20 15:22:01;;;;;;;6.93;3.23;;;17.10;62.10;;;;;;5187017;28;20670;-62
2022/04/20 15:24:53;;;;;;;7.20;3.20;;;17.10;62.10;;;;;;5206361;28;20190;-61
2022/04/20 15:27:45;;;;;;;9.33;3.93;;;17.10;62.20;;;;;;5204778;28;20746;-64
2022/04/20 15:30:39;;;;;;;7.17;3.20;;;17.10;62.20;;;;;;5206352;28;20202;-63
2022/04/20 15:33:31;;;;;;;9.03;3.53;;;17.10;62.20;;;;;;5185616;28;20233;-63
2022/04/20 15:36:23;;;;;;;7.47;3.23;;;17.10;62.20;;;;;;5205298;28;20198;-63
2022/04/20 15:39:17;;;;;;;7.20;3.03;;;17.10;62.80;;;;;;5199112;28;20331;-62
2022/04/20 15:42:09;;;;;;;6.77;3.13;;;17.10;62.20;;;;;;5206574;28;20218;-63
2022/04/20 15:45:01;;;;;;;8.87;3.67;;;17.10;62.20;;;;;;5206667;28;20208;-63